createdAt,value
2019-05-05T00:02:14.757Z,96352.30
2019-05-05T00:05:28.832Z,96348.45
2019-05-05T00:08:24.693Z,96347.59
2019-05-05T00:11:44.509Z,96349.27
2019-05-05T00:14:54.723Z,96346.83
2019-05-05T00:17:49.712Z,96342.56
2019-05-05T00:20:46.416Z,96333.63
2019-05-05T00:23:42.072Z,96330.55
2019-05-05T00:26:38.907Z,96341.45
2019-05-05T00:29:35.042Z,96341.81
2019-05-05T00:32:31.673Z,96348.02
2019-05-05T00:35:29.515Z,96354.55
2019-05-05T00:38:29.371Z,96352.94
2019-05-05T00:41:26.937Z,96353.77
2019-05-05T00:44:24.612Z,96357.16
2019-05-05T00:47:31.326Z,96356.41
2019-05-05T00:50:31.137Z,96364.23
2019-05-05T00:53:26.633Z,96367.56
2019-05-05T00:56:25.045Z,96373.84
2019-05-05T00:59:20.609Z,96373.37
2019-05-05T01:02:31.096Z,96389.69
2019-05-05T01:05:34.303Z,96383.88
2019-05-05T01:08:29.923Z,96393.05
2019-05-05T01:11:26.813Z,96387.83
2019-05-05T01:14:22.468Z,96394.46
2019-05-05T01:17:20.307Z,96398.69
2019-05-05T01:20:16.313Z,96384.42
2019-05-05T01:23:14.903Z,96388.66
2019-05-05T01:26:09.541Z,96386.11
2019-05-05T01:29:06.111Z,96389.38
2019-05-05T01:32:02.398Z,96394.28
2019-05-05T01:34:58.034Z,96403.39
2019-05-05T01:38:07.479Z,96406.25
2019-05-05T01:41:26.005Z,96422.56
2019-05-05T01:44:24.705Z,96422.09
2019-05-05T01:47:21.427Z,96422.56
2019-05-05T01:50:21.260Z,96423.81
2019-05-05T01:53:15.219Z,96434.20
2019-05-05T01:56:09.445Z,96435.92
2019-05-05T01:59:06.208Z,96431.70
2019-05-05T02:02:01.749Z,96433.73
2019-05-05T02:04:58.294Z,96428.29
2019-05-05T02:07:55.323Z,96428.22
2019-05-05T02:10:50.559Z,96433.23
2019-05-05T02:13:46.584Z,96435.74
2019-05-05T02:16:45.046Z,96428.93
2019-05-05T02:19:39.554Z,96428.64
2019-05-05T02:22:36.357Z,96427.39
2019-05-05T02:25:32.108Z,96424.81
2019-05-05T02:28:28.929Z,96422.98
2019-05-05T02:31:35.764Z,96424.67
2019-05-05T02:34:29.428Z,96424.63
2019-05-05T02:37:26.295Z,96415.31
2019-05-05T02:40:24.514Z,96413.98
2019-05-05T02:43:19.489Z,96409.68
2019-05-05T02:46:26.741Z,96423.32
2019-05-05T02:49:25.619Z,96407.45
2019-05-05T02:52:20.817Z,96420.89
2019-05-05T02:55:17.364Z,96426.61
2019-05-05T02:58:14.087Z,96430.73
2019-05-05T03:01:28.011Z,96439.07
2019-05-05T03:04:24.622Z,96439.93
2019-05-05T03:07:19.362Z,96440.05
2019-05-05T03:10:15.879Z,96446.78
2019-05-05T03:13:11.496Z,96450.11
2019-05-05T03:16:34.155Z,96454.92
2019-05-05T03:19:30.528Z,96465.31
2019-05-05T03:22:26.020Z,96472.87
2019-05-05T03:25:24.053Z,96473.30
2019-05-05T03:28:18.494Z,96480.08
2019-05-05T03:31:16.162Z,96487.09
2019-05-05T03:34:10.755Z,96487.52
2019-05-05T03:37:07.712Z,96482.94
2019-05-05T03:40:07.675Z,96486.42
2019-05-05T03:43:07.261Z,96490.69
2019-05-05T03:46:10.350Z,96489.83
2019-05-05T03:49:08.288Z,96499.94
2019-05-05T03:52:05.037Z,96493.31
2019-05-05T03:55:03.654Z,96499.94
2019-05-05T03:57:57.080Z,96500.69
2019-05-05T04:01:23.921Z,96507.30
2019-05-05T04:04:37.090Z,96505.97
2019-05-05T04:07:33.939Z,96504.55
2019-05-05T04:10:30.760Z,96498.78
2019-05-05T04:13:27.531Z,96498.82
2019-05-05T04:16:31.232Z,96500.94
2019-05-05T04:19:27.022Z,96502.00
2019-05-05T04:22:23.821Z,96512.71
2019-05-05T04:25:19.486Z,96514.55
2019-05-05T04:28:15.935Z,96508.36
2019-05-05T04:31:13.590Z,96514.16
2019-05-05T04:34:07.654Z,96523.52
2019-05-05T04:37:04.493Z,96520.27
2019-05-05T04:40:00.774Z,96535.71
2019-05-05T04:42:56.897Z,96538.02
2019-05-05T04:45:54.077Z,96545.55
2019-05-05T04:48:55.397Z,96546.45
2019-05-05T04:51:54.315Z,96550.76
2019-05-05T04:55:03.724Z,96552.17
2019-05-05T04:57:57.677Z,96546.80
2019-05-05T05:00:54.654Z,96560.95
2019-05-05T05:03:55.253Z,96560.95
2019-05-05T05:06:56.609Z,96562.70
2019-05-05T05:09:57.284Z,96563.87
2019-05-05T05:12:54.086Z,96569.09
2019-05-05T05:15:49.481Z,96579.31
2019-05-05T05:18:46.281Z,96586.05
2019-05-05T05:21:43.644Z,96589.53
2019-05-05T05:24:38.515Z,96586.20
2019-05-05T05:27:34.969Z,96600.01
2019-05-05T05:30:31.463Z,96604.67
2019-05-05T05:33:27.967Z,96605.57
2019-05-05T05:36:24.808Z,96603.85
2019-05-05T05:39:29.122Z,96605.57
2019-05-05T05:42:24.889Z,96607.00
2019-05-05T05:45:38.952Z,96610.41
2019-05-05T05:48:53.844Z,96607.19
2019-05-05T05:51:49.426Z,96608.36
2019-05-05T05:54:46.017Z,96620.08
2019-05-05T05:57:41.404Z,96621.69
2019-05-05T06:00:41.622Z,96620.69
2019-05-05T06:03:35.488Z,96622.95
2019-05-05T06:06:31.038Z,96630.02
2019-05-05T06:09:27.801Z,96629.66
2019-05-05T06:12:24.595Z,96638.89
2019-05-05T06:15:20.274Z,96638.89
2019-05-05T06:18:16.193Z,96644.23
2019-05-05T06:21:13.933Z,96644.96
2019-05-05T06:24:10.578Z,96647.33
2019-05-05T06:27:06.656Z,96645.85
2019-05-05T06:30:10.296Z,96641.93
2019-05-05T06:33:05.656Z,96646.27
2019-05-05T06:36:03.773Z,96652.95
2019-05-05T06:39:05.075Z,96650.47
2019-05-05T06:42:20.481Z,96658.58
2019-05-05T06:45:23.811Z,96655.48
2019-05-05T06:48:16.820Z,96657.73
2019-05-05T06:51:14.486Z,96655.64
2019-05-05T06:54:10.187Z,96654.55
2019-05-05T06:57:06.953Z,96662.59
2019-05-05T07:00:03.795Z,96664.05
2019-05-05T07:02:59.396Z,96669.31
2019-05-05T07:05:55.980Z,96670.59
2019-05-05T07:08:51.645Z,96664.30
2019-05-05T07:11:48.357Z,96672.91
2019-05-05T07:14:44.549Z,96681.67
2019-05-05T07:17:40.391Z,96681.73
2019-05-05T07:20:41.373Z,96681.12
2019-05-05T07:23:48.120Z,96678.91
2019-05-05T07:26:49.067Z,96683.20
2019-05-05T07:29:48.371Z,96684.31
2019-05-05T07:32:45.898Z,96676.33
2019-05-05T07:35:59.361Z,96683.94
2019-05-05T07:38:47.566Z,96685.02
2019-05-05T07:41:45.147Z,96690.03
2019-05-05T07:44:40.777Z,96691.17
2019-05-05T07:47:37.453Z,96694.41
2019-05-05T07:50:58.651Z,96703.08
2019-05-05T07:53:44.250Z,96702.05
2019-05-05T07:56:40.238Z,96707.86
2019-05-05T07:59:36.023Z,96706.25
2019-05-05T08:02:34.052Z,96716.34
2019-05-05T08:05:29.837Z,96712.27
2019-05-05T08:08:25.869Z,96710.98
2019-05-05T08:11:21.352Z,96712.34
2019-05-05T08:14:17.954Z,96716.27
2019-05-05T08:17:23.554Z,96710.61
2019-05-05T08:20:23.925Z,96718.81
2019-05-05T08:23:32.299Z,96719.69
2019-05-05T08:26:49.045Z,96724.26
2019-05-05T08:29:48.742Z,96726.55
2019-05-05T08:32:46.572Z,96718.81
2019-05-05T08:35:44.858Z,96724.23
2019-05-05T08:38:40.978Z,96718.03
2019-05-05T08:41:36.518Z,96718.61
2019-05-05T08:44:34.402Z,96716.80
2019-05-05T08:47:31.014Z,96715.20
2019-05-05T08:50:28.928Z,96722.61
2019-05-05T08:53:24.455Z,96720.37
2019-05-05T08:56:23.797Z,96719.27
2019-05-05T08:59:18.983Z,96713.03
2019-05-05T09:02:15.587Z,96712.47
2019-05-05T09:05:14.462Z,96716.82
2019-05-05T09:08:08.030Z,96706.19
2019-05-05T09:11:05.045Z,96702.70
2019-05-05T09:14:04.090Z,96703.49
2019-05-05T09:17:04.459Z,96701.78
2019-05-05T09:20:04.627Z,96702.81
2019-05-05T09:23:00.275Z,96704.54
2019-05-05T09:26:10.905Z,96701.11
2019-05-05T09:29:20.851Z,96703.38
2019-05-05T09:32:17.538Z,96700.11
2019-05-05T09:35:15.451Z,96696.06
2019-05-05T09:38:12.062Z,96706.30
2019-05-05T09:41:09.855Z,96703.00
2019-05-05T09:44:13.622Z,96699.72
2019-05-05T09:47:09.463Z,96705.91
2019-05-05T09:50:06.060Z,96705.91
2019-05-05T09:53:04.052Z,96692.78
2019-05-05T09:55:58.637Z,96689.20
2019-05-05T09:58:55.492Z,96698.32
2019-05-05T10:01:53.821Z,96696.64
2019-05-05T10:04:48.855Z,96697.70
2019-05-05T10:07:44.961Z,96689.08
2019-05-05T10:10:44.206Z,96687.78
2019-05-05T10:13:41.296Z,96690.42
2019-05-05T10:16:38.125Z,96698.77
2019-05-05T10:19:34.797Z,96696.27
2019-05-05T10:22:31.660Z,96697.86
2019-05-05T10:25:39.396Z,96697.03
2019-05-05T10:28:47.396Z,96695.38
2019-05-05T10:31:43.876Z,96695.98
2019-05-05T10:34:40.444Z,96695.68
2019-05-05T10:37:36.866Z,96692.19
2019-05-05T10:40:35.294Z,96687.89
2019-05-05T10:43:34.330Z,96684.66
2019-05-05T10:46:29.722Z,96692.36
2019-05-05T10:49:26.413Z,96683.18
2019-05-05T10:52:23.069Z,96678.98
2019-05-05T10:55:18.614Z,96677.70
2019-05-05T10:58:15.533Z,96688.22
2019-05-05T11:01:11.023Z,96685.59
2019-05-05T11:04:08.455Z,96686.89
2019-05-05T11:07:05.050Z,96682.03
2019-05-05T11:10:00.826Z,96681.33
2019-05-05T11:12:57.484Z,96687.38
2019-05-05T11:15:54.708Z,96688.38
2019-05-05T11:18:50.123Z,96679.08
2019-05-05T11:21:45.823Z,96685.89
2019-05-05T11:24:56.788Z,96683.34
2019-05-05T11:27:39.212Z,96691.66
2019-05-05T11:30:42.727Z,96692.74
2019-05-05T11:34:03.945Z,96697.30
2019-05-05T11:37:17.891Z,96712.02
2019-05-05T11:40:14.520Z,96708.30
2019-05-05T11:43:11.101Z,96714.27
2019-05-05T11:46:07.822Z,96714.27
2019-05-05T11:49:05.653Z,96719.69
2019-05-05T11:52:05.607Z,96726.46
2019-05-05T11:55:09.739Z,96724.74
2019-05-05T11:57:57.809Z,96736.34
2019-05-05T12:00:54.719Z,96737.81
2019-05-05T12:03:50.784Z,96744.33
2019-05-05T12:06:46.432Z,96746.45
2019-05-05T12:09:48.311Z,96753.05
2019-05-05T12:12:44.166Z,96755.88
2019-05-05T12:15:41.237Z,96762.73
2019-05-05T12:18:36.857Z,96767.02
2019-05-05T12:21:33.847Z,96765.35
2019-05-05T12:24:33.905Z,96762.31
2019-05-05T12:27:40.938Z,96760.91
2019-05-05T12:30:38.913Z,96755.28
2019-05-05T12:33:44.091Z,96754.03
2019-05-05T12:36:45.001Z,96751.03
2019-05-05T12:39:48.081Z,96745.53
2019-05-05T12:42:44.021Z,96745.84
2019-05-05T12:45:41.101Z,96741.06
2019-05-05T12:48:40.665Z,96743.02
2019-05-05T12:51:37.260Z,96738.99
2019-05-05T12:54:33.597Z,96733.63
2019-05-05T12:57:29.717Z,96741.30
2019-05-05T13:00:26.044Z,96728.50
2019-05-05T13:03:35.407Z,96730.52
2019-05-05T13:06:34.389Z,96727.27
2019-05-05T13:09:27.603Z,96724.81
2019-05-05T13:12:24.034Z,96724.48
2019-05-05T13:15:19.818Z,96724.54
2019-05-05T13:18:15.468Z,96725.72
2019-05-05T13:21:26.183Z,96728.38
2019-05-05T13:24:40.235Z,96735.73
2019-05-05T13:27:41.111Z,96728.62
2019-05-05T13:30:37.787Z,96738.83
2019-05-05T13:33:34.619Z,96738.09
2019-05-05T13:36:33.335Z,96737.11
2019-05-05T13:39:27.886Z,96737.81
2019-05-05T13:42:24.490Z,96744.45
2019-05-05T13:45:37.972Z,96755.81
2019-05-05T13:48:35.426Z,96750.27
2019-05-05T13:51:31.836Z,96747.78
2019-05-05T13:54:27.696Z,96743.39
2019-05-05T13:57:26.295Z,96749.25
2019-05-05T14:00:23.198Z,96749.58
2019-05-05T14:03:19.820Z,96746.53
2019-05-05T14:06:16.527Z,96740.99
2019-05-05T14:09:13.787Z,96747.05
2019-05-05T14:12:18.004Z,96746.56
2019-05-05T14:15:14.628Z,96741.79
2019-05-05T14:18:14.194Z,96733.83
2019-05-05T14:21:14.039Z,96741.24
2019-05-05T14:24:20.901Z,96736.23
2019-05-05T14:27:17.825Z,96734.50
2019-05-05T14:30:23.530Z,96729.95
2019-05-05T14:33:19.116Z,96732.19
2019-05-05T14:36:33.535Z,96739.93
2019-05-05T14:39:30.006Z,96733.05
2019-05-05T14:42:25.608Z,96745.83
2019-05-05T14:45:23.622Z,96743.25
2019-05-05T14:48:21.064Z,96738.29
2019-05-05T14:51:20.810Z,96735.53
2019-05-05T14:54:17.234Z,96735.71
2019-05-05T14:57:14.050Z,96745.78
2019-05-05T15:00:10.650Z,96743.78
2019-05-05T15:03:06.592Z,96736.53
2019-05-05T15:06:15.377Z,96747.30
2019-05-05T15:09:21.784Z,96743.28
2019-05-05T15:12:47.163Z,96751.63
2019-05-05T15:15:44.080Z,96749.09
2019-05-05T15:18:40.957Z,96744.82
2019-05-05T15:21:37.531Z,96747.41
2019-05-05T15:24:34.531Z,96743.03
2019-05-05T15:27:31.713Z,96740.60
2019-05-05T15:30:28.292Z,96746.55
2019-05-05T15:33:24.296Z,96751.69
2019-05-05T15:36:20.939Z,96758.90
2019-05-05T15:39:17.642Z,96754.32
2019-05-05T15:42:14.307Z,96763.95
2019-05-05T15:45:12.039Z,96763.84
2019-05-05T15:48:07.630Z,96785.80
2019-05-05T15:51:04.201Z,96788.80
2019-05-05T15:53:59.297Z,96796.95
2019-05-05T15:57:04.883Z,96801.48
2019-05-05T15:59:54.327Z,96807.34
2019-05-05T16:02:49.311Z,96809.98
2019-05-05T16:05:45.853Z,96818.59
2019-05-05T16:08:54.473Z,96811.64
2019-05-05T16:11:49.275Z,96802.72
2019-05-05T16:14:46.243Z,96787.02
2019-05-05T16:17:55.854Z,96786.59
2019-05-05T16:20:56.550Z,96787.69
2019-05-05T16:23:56.612Z,96781.92
2019-05-05T16:26:55.303Z,96777.92
2019-05-05T16:29:49.871Z,96776.80
2019-05-05T16:32:54.837Z,96773.92
2019-05-05T16:35:49.582Z,96780.04
2019-05-05T16:38:46.479Z,96783.09
2019-05-05T16:41:43.522Z,96786.54
2019-05-05T16:44:40.419Z,96787.31
2019-05-05T16:47:37.219Z,96781.94
2019-05-05T16:50:34.065Z,96791.17
2019-05-05T16:53:41.597Z,96785.99
2019-05-05T16:56:37.874Z,96795.59
2019-05-05T16:59:34.612Z,96785.83
2019-05-05T17:02:33.280Z,96789.27
2019-05-05T17:05:27.265Z,96792.64
2019-05-05T17:08:24.525Z,96792.64
2019-05-05T17:11:21.792Z,96797.77
2019-05-05T17:14:27.597Z,96796.08
2019-05-05T17:17:34.085Z,96799.56
2019-05-05T17:20:33.668Z,96796.96
2019-05-05T17:23:29.491Z,96800.26
2019-05-05T17:26:24.881Z,96812.05
2019-05-05T17:29:28.540Z,96807.05
2019-05-05T17:32:25.355Z,96807.07
2019-05-05T17:35:21.318Z,96809.62
2019-05-05T17:38:28.686Z,96813.39
2019-05-05T17:41:48.402Z,96815.91
2019-05-05T17:44:55.799Z,96812.05
2019-05-05T17:47:54.715Z,96810.37
2019-05-05T17:51:13.955Z,96816.02
2019-05-05T17:54:27.003Z,96808.34
2019-05-05T17:57:25.904Z,96815.03
2019-05-05T18:00:24.919Z,96809.86
2019-05-05T18:03:20.920Z,96820.78
2019-05-05T18:06:29.923Z,96823.57
2019-05-05T18:09:29.577Z,96825.97
2019-05-05T18:12:38.259Z,96822.66
2019-05-05T18:15:48.364Z,96823.88
2019-05-05T18:18:44.471Z,96825.53
2019-05-05T18:21:39.830Z,96831.76
2019-05-05T18:24:38.767Z,96836.26
2019-05-05T18:27:34.557Z,96837.85
2019-05-05T18:30:33.450Z,96842.80
2019-05-05T18:33:28.182Z,96845.63
2019-05-05T18:36:24.593Z,96844.69
2019-05-05T18:39:26.180Z,96845.44
2019-05-05T18:42:29.628Z,96858.33
2019-05-05T18:45:35.550Z,96863.23
2019-05-05T18:48:34.517Z,96868.98
2019-05-05T18:51:30.569Z,96867.58
2019-05-05T18:54:27.440Z,96869.98
2019-05-05T18:57:24.788Z,96868.58
2019-05-05T19:00:24.316Z,96882.39
2019-05-05T19:03:20.702Z,96882.70
2019-05-05T19:06:34.438Z,96884.34
2019-05-05T19:09:31.088Z,96884.28
2019-05-05T19:12:28.276Z,96885.08
2019-05-05T19:15:26.080Z,96891.75
2019-05-05T19:18:26.313Z,96890.06
2019-05-05T19:21:35.986Z,96892.52
2019-05-05T19:24:35.192Z,96896.59
2019-05-05T19:27:33.697Z,96895.62
2019-05-05T19:30:28.804Z,96899.35
2019-05-05T19:33:25.550Z,96892.16
2019-05-05T19:36:22.137Z,96900.45
2019-05-05T19:39:24.448Z,96899.50
2019-05-05T19:42:28.887Z,96907.00
2019-05-05T19:45:26.711Z,96905.20
2019-05-05T19:48:23.946Z,96906.04
2019-05-05T19:51:30.498Z,96907.66
2019-05-05T19:54:25.909Z,96897.05
2019-05-05T19:57:22.422Z,96903.72
2019-05-05T20:00:18.098Z,96900.67
2019-05-05T20:03:15.068Z,96899.75
2019-05-05T20:06:11.100Z,96901.27
2019-05-05T20:09:08.041Z,96903.59
2019-05-05T20:12:05.872Z,96908.59
2019-05-05T20:15:04.177Z,96906.80
2019-05-05T20:18:01.469Z,96903.31
2019-05-05T20:21:04.010Z,96910.73
2019-05-05T20:23:54.053Z,96904.70
2019-05-05T20:26:49.588Z,96903.30
2019-05-05T20:29:46.154Z,96900.61
2019-05-05T20:32:51.897Z,96892.38
2019-05-05T20:36:06.292Z,96904.84
2019-05-05T20:39:04.528Z,96906.36
2019-05-05T20:42:01.202Z,96905.35
2019-05-05T20:44:59.174Z,96904.05
2019-05-05T20:47:54.471Z,96903.55
2019-05-05T20:50:52.036Z,96903.33
2019-05-05T20:53:49.866Z,96905.70
2019-05-05T20:56:45.485Z,96909.91
2019-05-05T20:59:44.383Z,96898.15
2019-05-05T21:02:38.844Z,96902.64
2019-05-05T21:05:41.067Z,96901.66
2019-05-05T21:08:44.303Z,96900.29
2019-05-05T21:11:39.471Z,96891.95
2019-05-05T21:14:38.149Z,96893.56
2019-05-05T21:17:33.842Z,96896.44
2019-05-05T21:20:30.602Z,96898.48
2019-05-05T21:23:43.740Z,96896.72
2019-05-05T21:26:51.231Z,96896.67
2019-05-05T21:29:49.230Z,96903.28
2019-05-05T21:32:46.063Z,96905.33
2019-05-05T21:35:44.121Z,96898.88
2019-05-05T21:38:39.852Z,96900.03
2019-05-05T21:41:43.801Z,96898.25
2019-05-05T21:44:47.139Z,96897.75
2019-05-05T21:47:44.246Z,96898.49
2019-05-05T21:50:45.685Z,96895.11
2019-05-05T21:54:04.440Z,96894.64
2019-05-05T21:57:14.041Z,96898.41
2019-05-05T22:00:09.888Z,96897.98
2019-05-05T22:03:05.763Z,96898.69
2019-05-05T22:06:03.752Z,96896.72
2019-05-05T22:09:00.096Z,96896.25
2019-05-05T22:11:55.606Z,96897.39
2019-05-05T22:14:55.101Z,96897.14
2019-05-05T22:17:50.049Z,96895.34
2019-05-05T22:20:49.942Z,96896.78
2019-05-05T22:23:46.553Z,96894.14
2019-05-05T22:26:44.510Z,96896.02
2019-05-05T22:29:40.327Z,96892.87
2019-05-05T22:32:37.576Z,96883.68
2019-05-05T22:35:34.889Z,96892.52
2019-05-05T22:38:30.016Z,96891.13
2019-05-05T22:41:26.818Z,96889.67
2019-05-05T22:44:24.522Z,96891.58
2019-05-05T22:47:23.500Z,96899.11
2019-05-05T22:50:18.021Z,96895.61
2019-05-05T22:53:14.051Z,96894.70
2019-05-05T22:56:10.027Z,96899.98
2019-05-05T22:59:05.244Z,96896.12
2019-05-05T23:02:06.587Z,96887.77
2019-05-05T23:05:20.528Z,96892.01
2019-05-05T23:08:18.659Z,96894.39
2019-05-05T23:11:14.565Z,96890.07
2019-05-05T23:14:29.064Z,96890.80
2019-05-05T23:17:35.138Z,96893.00
2019-05-05T23:21:27.743Z,96893.60
2019-05-05T23:24:56.884Z,96893.60
2019-05-05T23:27:59.914Z,96888.45
2019-05-05T23:30:55.467Z,96893.38
2019-05-05T23:33:56.947Z,96891.56
2019-05-05T23:37:00.887Z,96886.45
2019-05-05T23:39:57.612Z,96893.54
2019-05-05T23:42:54.405Z,96897.17
2019-05-05T23:45:50.725Z,96898.77
2019-05-05T23:48:47.416Z,96891.06
2019-05-05T23:51:44.135Z,96897.58
2019-05-05T23:54:39.883Z,96889.01
2019-05-05T23:57:37.412Z,96893.92
